Time;durP1;ratioP1;P1;durP2;ratioP2;P2;SDS_P1;SDS_P2;PMS_P1;PMS_P2;Temp;Humidity;BMP_temperature;BMP_pressure;BME280_temperature;BME280_humidity;BME280_pressure;Samples;Min_cycle;Max_cycle;Signal;HPM_P1;HPM_P2
2022/10/22 00:00:19;;;;;;;9.33;9.03;;;13.70;99.90;;;;;;5033977;28;20300;-79
2022/10/22 00:02:47;;;;;;;9.40;9.10;;;13.70;99.90;;;;;;5029738;28;20240;-79
2022/10/22 00:05:14;;;;;;;9.17;8.87;;;13.70;99.90;;;;;;5021270;28;20284;-79
2022/10/22 00:07:42;;;;;;;9.40;9.10;;;13.70;99.90;;;;;;5020875;28;20246;-79
2022/10/22 00:10:10;;;;;;;9.30;9.00;;;13.70;99.90;;;;;;5021744;28;20319;-79
2022/10/22 00:12:39;;;;;;;9.27;8.97;;;13.70;99.90;;;;;;5022772;28;20288;-79
2022/10/22 00:15:08;;;;;;;9.30;9.00;;;13.70;99.90;;;;;;5014865;28;20217;-79
2022/10/22 00:17:36;;;;;;;9.30;9.00;;;13.70;99.90;;;;;;5022655;28;20236;-80
2022/10/22 00:20:04;;;;;;;9.30;9.00;;;13.70;99.90;;;;;;5013657;28;20236;-80
2022/10/22 00:22:32;;;;;;;9.40;9.10;;;13.70;99.90;;;;;;5022577;28;20338;-79
2022/10/22 00:25:00;;;;;;;9.40;9.10;;;13.70;99.90;;;;;;5031780;28;20267;-78
2022/10/22 00:27:27;;;;;;;9.30;9.00;;;13.70;99.90;;;;;;5032411;28;20327;-79
2022/10/22 00:29:56;;;;;;;9.20;8.90;;;13.70;99.90;;;;;;5032094;28;20323;-79
2022/10/22 00:32:24;;;;;;;9.10;8.80;;;13.70;99.90;;;;;;5024591;28;20232;-79
2022/10/22 00:34:51;;;;;;;9.20;8.90;;;13.70;99.90;;;;;;5023622;28;20340;-79
2022/10/22 00:37:18;;;;;;;9.10;8.80;;;13.70;99.90;;;;;;5015302;28;20240;-79
2022/10/22 00:39:46;;;;;;;9.00;8.70;;;13.70;99.90;;;;;;5023068;28;20242;-79
2022/10/22 00:42:20;;;;;;;9.10;8.80;;;13.70;99.90;;;;;;5023060;28;20255;-79
2022/10/22 00:45:24;;;;;;;8.90;8.60;;;13.70;99.90;;;;;;5023184;28;20231;-80
2022/10/22 00:47:58;;;;;;;9.10;8.80;;;13.70;99.90;;;;;;4942378;29;20306;-79
2022/10/22 00:50:30;;;;;;;9.20;8.90;;;13.70;99.90;;;;;;4943981;29;20322;-80
2022/10/22 00:53:00;;;;;;;9.10;8.80;;;13.70;99.90;;;;;;4994624;28;20284;-79
2022/10/22 00:55:29;;;;;;;9.20;8.90;;;13.70;99.90;;;;;;5042122;28;20221;-79
2022/10/22 00:57:59;;;;;;;9.40;9.10;;;13.70;99.90;;;;;;5043106;28;20228;-79
2022/10/22 01:00:28;;;;;;;9.30;9.00;;;13.70;99.90;;;;;;5023201;28;20212;-79
2022/10/22 01:02:56;;;;;;;9.17;8.87;;;13.70;99.90;;;;;;5020109;28;20227;-78
2022/10/22 01:05:26;;;;;;;9.10;8.80;;;13.60;99.90;;;;;;5021830;28;20272;-80
2022/10/22 01:07:55;;;;;;;8.97;8.67;;;13.60;99.90;;;;;;5022234;28;20240;-80
2022/10/22 01:10:46;;;;;;;9.20;8.90;;;13.70;99.90;;;;;;5022307;28;20237;-80
2022/10/22 01:13:30;;;;;;;9.10;8.80;;;13.70;99.90;;;;;;5021233;28;20280;-80
2022/10/22 01:16:09;;;;;;;9.30;9.00;;;13.70;99.90;;;;;;5017688;28;20216;-80
2022/10/22 01:18:46;;;;;;;9.20;8.90;;;13.70;99.90;;;;;;5015605;28;20272;-80
2022/10/22 01:21:25;;;;;;;9.13;8.83;;;13.70;99.90;;;;;;5016656;28;20240;-79
2022/10/22 01:24:35;;;;;;;9.07;8.77;;;13.60;99.90;;;;;;5022493;28;20291;-80
2022/10/22 01:27:20;;;;;;;9.30;9.00;;;13.60;99.90;;;;;;5023859;28;20231;-80
2022/10/22 01:29:53;;;;;;;9.10;8.80;;;13.60;99.90;;;;;;5021245;28;20246;-79
2022/10/22 01:32:24;;;;;;;9.10;8.80;;;13.60;99.90;;;;;;5021314;28;20264;-79
2022/10/22 01:34:56;;;;;;;9.10;8.80;;;13.60;99.90;;;;;;5021380;28;20287;-80
2022/10/22 01:37:29;;;;;;;9.30;9.00;;;13.60;99.90;;;;;;5021567;28;20235;-80
2022/10/22 01:39:58;;;;;;;9.43;9.13;;;13.60;99.90;;;;;;5020911;28;20236;-79
2022/10/22 01:42:25;;;;;;;9.23;8.93;;;13.60;99.90;;;;;;5021245;28;20339;-80
2022/10/22 01:44:54;;;;;;;9.60;9.30;;;13.60;99.90;;;;;;5021198;28;20258;-79
2022/10/22 01:47:34;;;;;;;9.30;9.00;;;13.60;99.90;;;;;;5021248;28;20231;-80
2022/10/22 01:50:34;;;;;;;9.20;8.90;;;13.60;99.90;;;;;;5020860;28;20720;-80
2022/10/22 01:53:27;;;;;;;9.27;8.97;;;13.60;99.90;;;;;;5016047;28;20271;-81
2022/10/22 01:56:11;;;;;;;9.30;9.00;;;13.50;99.90;;;;;;5021706;28;20240;-80
2022/10/22 01:58:48;;;;;;;9.20;8.90;;;13.50;99.90;;;;;;5021280;28;20224;-81
2022/10/22 02:01:26;;;;;;;9.10;8.80;;;13.50;99.90;;;;;;5020933;28;20281;-80
2022/10/22 02:04:05;;;;;;;9.10;8.80;;;13.50;99.90;;;;;;5020175;28;20287;-81
2022/10/22 02:06:34;;;;;;;9.00;8.70;;;13.60;99.90;;;;;;5027348;28;20224;-80
2022/10/22 02:09:04;;;;;;;9.10;8.80;;;13.60;99.90;;;;;;5022955;28;20216;-81
2022/10/22 02:11:34;;;;;;;9.20;8.90;;;13.60;99.90;;;;;;5023149;28;20263;-80
2022/10/22 02:14:05;;;;;;;9.00;8.70;;;13.60;99.90;;;;;;5022529;28;20247;-80
2022/10/22 02:16:41;;;;;;;9.00;8.70;;;13.60;99.90;;;;;;5021645;28;20260;-82
2022/10/22 02:19:19;;;;;;;8.90;8.60;;;13.60;99.90;;;;;;5016080;28;20379;-81
2022/10/22 02:21:47;;;;;;;9.00;8.70;;;13.60;99.90;;;;;;5008224;28;20252;-81
2022/10/22 02:24:14;;;;;;;9.20;8.90;;;13.60;99.90;;;;;;5011273;28;20320;-81
2022/10/22 02:26:48;;;;;;;9.20;8.90;;;13.60;99.90;;;;;;5013853;28;20244;-81
2022/10/22 02:29:25;;;;;;;9.13;8.83;;;13.60;99.90;;;;;;5017759;28;20331;-81
2022/10/22 02:31:58;;;;;;;8.97;8.67;;;13.60;99.90;;;;;;5008284;28;20236;-81
2022/10/22 02:34:30;;;;;;;9.10;8.80;;;13.50;99.90;;;;;;5001201;28;20233;-81
2022/10/22 02:37:00;;;;;;;9.07;8.77;;;13.50;99.90;;;;;;5001772;28;20309;-79
2022/10/22 02:39:28;;;;;;;9.17;8.87;;;13.50;99.90;;;;;;5000708;28;20231;-81
2022/10/22 02:41:56;;;;;;;9.20;8.90;;;13.50;99.90;;;;;;5001192;28;20290;-81
2022/10/22 02:44:26;;;;;;;8.93;8.63;;;13.50;99.90;;;;;;5010758;28;20243;-81
2022/10/22 02:46:55;;;;;;;9.20;8.90;;;13.40;99.90;;;;;;5020962;28;20220;-80
2022/10/22 02:49:22;;;;;;;9.30;9.00;;;13.40;99.90;;;;;;5019475;28;20318;-79
2022/10/22 02:51:50;;;;;;;9.37;9.07;;;13.40;99.90;;;;;;5019432;28;20323;-80
2022/10/22 02:54:18;;;;;;;9.40;9.10;;;13.40;99.90;;;;;;5019481;28;20242;-78
2022/10/22 02:56:45;;;;;;;9.20;8.90;;;13.40;99.90;;;;;;5019404;28;20228;-79
2022/10/22 02:59:13;;;;;;;9.30;9.00;;;13.40;99.90;;;;;;5018875;28;20243;-79
2022/10/22 03:01:42;;;;;;;9.30;9.00;;;13.50;99.90;;;;;;5020403;28;20236;-79
2022/10/22 03:04:12;;;;;;;9.07;8.77;;;13.50;99.90;;;;;;5020988;28;20236;-81
2022/10/22 03:06:42;;;;;;;9.07;8.77;;;13.50;99.90;;;;;;5020233;28;20236;-80
2022/10/22 03:09:11;;;;;;;9.13;8.83;;;13.50;99.90;;;;;;5019522;28;20232;-80
2022/10/22 03:11:39;;;;;;;9.10;8.80;;;13.50;99.90;;;;;;5020344;28;20232;-79
2022/10/22 03:14:07;;;;;;;9.30;9.00;;;13.40;99.90;;;;;;5019893;28;20243;-80
2022/10/22 03:16:36;;;;;;;9.10;8.80;;;13.40;99.90;;;;;;5019427;28;20224;-79
2022/10/22 03:19:03;;;;;;;9.30;9.00;;;13.50;99.90;;;;;;5018658;28;20232;-79
2022/10/22 03:21:39;;;;;;;9.20;8.90;;;13.40;99.90;;;;;;5019214;28;20323;-79
2022/10/22 03:24:10;;;;;;;9.20;8.90;;;13.40;99.90;;;;;;5019241;28;20231;-79
2022/10/22 03:26:40;;;;;;;9.13;8.83;;;13.30;99.90;;;;;;5019554;28;20319;-80
2022/10/22 03:29:09;;;;;;;9.40;9.10;;;13.30;99.90;;;;;;5020529;28;20335;-80
2022/10/22 03:31:36;;;;;;;9.30;9.00;;;13.30;99.90;;;;;;5020638;28;20260;-79
2022/10/22 03:34:04;;;;;;;9.40;9.10;;;13.30;99.90;;;;;;5019517;28;20267;-79
2022/10/22 03:36:34;;;;;;;9.30;9.00;;;13.30;99.90;;;;;;5023975;28;20221;-80
2022/10/22 03:39:05;;;;;;;9.30;9.00;;;13.30;99.90;;;;;;5014091;28;20258;-80
2022/10/22 03:41:33;;;;;;;9.30;9.00;;;13.30;99.90;;;;;;5001711;28;20229;-81
2022/10/22 03:44:02;;;;;;;9.00;8.70;;;13.30;99.90;;;;;;5004825;28;20264;-80
2022/10/22 03:46:32;;;;;;;8.93;8.63;;;13.30;99.90;;;;;;5005693;28;20284;-80
2022/10/22 03:49:01;;;;;;;8.97;8.67;;;13.30;99.90;;;;;;5004427;28;20272;-81
2022/10/22 03:51:29;;;;;;;8.90;8.60;;;13.30;99.90;;;;;;5004537;28;20232;-80
2022/10/22 03:53:59;;;;;;;8.97;8.67;;;13.30;99.90;;;;;;5004428;28;20339;-80
2022/10/22 03:56:27;;;;;;;9.10;8.80;;;13.40;99.90;;;;;;5004569;28;20255;-79
2022/10/22 03:59:00;;;;;;;9.40;9.10;;;13.40;99.90;;;;;;5004361;28;20235;-80
2022/10/22 04:01:30;;;;;;;9.30;9.00;;;13.40;99.90;;;;;;5007586;28;20271;-79
2022/10/22 04:03:58;;;;;;;9.30;9.00;;;13.40;99.90;;;;;;5017909;28;20236;-80
2022/10/22 04:06:28;;;;;;;9.20;8.90;;;13.40;99.90;;;;;;5011202;28;20336;-81
2022/10/22 04:09:01;;;;;;;9.20;8.90;;;13.30;99.90;;;;;;5018422;28;20245;-80
2022/10/22 04:11:28;;;;;;;9.10;8.80;;;13.40;99.90;;;;;;5012034;28;20228;-80
2022/10/22 04:40:49;;;;;;;8.67;8.47;;;13.40;99.90;;;;;;4827778;29;20234;-89
2022/10/22 07:06:10;;;;;;;8.70;8.50;;;13.20;99.90;;;;;;4720669;29;20233;-89
2022/10/22 07:09:07;;;;;;;8.77;8.57;;;13.20;99.90;;;;;;4806910;29;20235;-89
2022/10/22 07:11:44;;;;;;;8.67;8.47;;;13.20;99.90;;;;;;4889438;29;20239;-87
2022/10/22 07:26:31;;;;;;;;;;;;;;;;;;;;;
2022/10/22 08:16:05;;;;;;;9.10;8.80;;;14.40;99.90;;;;;;4820416;29;20238;-90
2022/10/22 08:19:15;;;;;;;;;;;;;;;;;;;;;
2022/10/22 08:24:42;;;;;;;9.10;8.80;;;14.60;99.90;;;;;;4993032;28;20232;-89
2022/10/22 08:27:12;;;;;;;9.20;8.90;;;14.70;99.90;;;;;;5038017;28;20223;-87
2022/10/22 08:29:42;;;;;;;9.17;8.87;;;14.90;99.90;;;;;;5038360;28;20376;-87
2022/10/22 08:32:22;;;;;;;8.82;8.63;;;15.10;99.90;;;;;;5040141;28;20234;-87
2022/10/22 08:37:57;;;;;;;9.30;9.00;;;15.40;99.90;;;;;;5038640;28;20231;-86
2022/10/22 08:41:07;;;;;;;9.20;8.90;;;15.50;99.90;;;;;;5030419;28;20238;-87
2022/10/22 08:44:04;;;;;;;9.02;8.73;;;15.60;99.90;;;;;;5034517;28;20215;-86
2022/10/22 08:47:30;;;;;;;9.00;8.70;;;15.70;99.90;;;;;;5026702;28;20236;-90
2022/10/22 08:50:12;;;;;;;8.95;8.65;;;15.80;99.90;;;;;;5022403;28;20259;-89
2022/10/22 08:56:30;;;;;;;9.00;8.70;;;15.90;99.90;;;;;;4920320;28;20289;-88
2022/10/22 09:11:10;;;;;;;9.02;8.75;;;16.90;99.90;;;;;;4916396;28;20279;-86
2022/10/22 09:13:41;;;;;;;8.90;8.70;;;17.10;99.90;;;;;;5003812;28;20297;-88
2022/10/22 09:16:37;;;;;;;9.07;8.80;;;17.40;99.90;;;;;;5032906;28;20314;-87
2022/10/22 09:19:23;;;;;;;9.00;8.80;;;17.60;99.90;;;;;;5019067;28;20228;-88
2022/10/22 09:22:45;;;;;;;8.95;8.75;;;17.60;99.90;;;;;;5021280;28;20303;-85
2022/10/22 09:28:54;;;;;;;8.90;8.70;;;17.90;99.90;;;;;;5015337;28;20240;-88
2022/10/22 09:31:22;;;;;;;9.35;9.05;;;18.20;99.90;;;;;;5037091;28;20212;-88
2022/10/22 09:37:42;;;;;;;9.30;9.00;;;18.40;99.90;;;;;;4935398;28;20242;-88
2022/10/22 09:50:45;;;;;;;8.95;8.75;;;18.00;99.90;;;;;;4962903;28;20256;-88
2022/10/22 09:53:22;;;;;;;8.82;8.63;;;17.70;99.90;;;;;;5027672;28;20334;-89
2022/10/22 09:58:48;;;;;;;8.52;8.32;;;17.70;99.90;;;;;;5053884;28;20217;-89
2022/10/22 10:01:24;;;;;;;8.75;8.55;;;17.60;99.90;;;;;;5040069;28;20318;-90
2022/10/22 10:03:54;;;;;;;9.18;8.88;;;17.80;99.90;;;;;;5039689;28;20270;-89
2022/10/22 10:09:46;;;;;;;9.20;8.90;;;18.70;99.90;;;;;;4962190;28;20221;-87
2022/10/22 10:15:56;;;;;;;9.60;9.30;;;19.20;99.90;;;;;;5060577;22;20273;-83
2022/10/22 10:18:38;;;;;;;10.10;9.80;;;19.20;99.90;;;;;;5040374;28;20255;-83
2022/10/22 10:21:20;;;;;;;10.10;9.80;;;19.60;99.90;;;;;;5041962;28;20290;-85
2022/10/22 10:23:59;;;;;;;9.57;9.27;;;20.00;99.90;;;;;;5049861;28;20314;-85
2022/10/22 10:26:36;;;;;;;10.30;10.00;;;20.30;99.90;;;;;;5047294;28;20261;-84
2022/10/22 10:29:26;;;;;;;10.25;9.95;;;20.70;99.90;;;;;;5046966;28;20219;-85
2022/10/22 10:32:21;;;;;;;10.20;9.90;;;21.10;99.90;;;;;;5046826;28;20224;-84
2022/10/22 10:34:59;;;;;;;10.52;10.23;;;21.50;99.90;;;;;;5045951;28;20299;-83
2022/10/22 10:37:32;;;;;;;10.30;10.00;;;21.80;99.90;;;;;;5045123;28;20215;-83
2022/10/22 10:40:24;;;;;;;10.05;9.75;;;22.10;99.90;;;;;;5044085;28;20216;-83
2022/10/22 10:42:58;;;;;;;10.00;9.70;;;22.10;99.90;;;;;;5044607;28;20310;-83
2022/10/22 10:45:42;;;;;;;10.00;9.70;;;21.90;99.90;;;;;;5044294;28;20238;-83
2022/10/22 10:48:40;;;;;;;10.02;9.73;;;21.40;99.90;;;;;;5043936;28;20249;-84
2022/10/22 10:51:23;;;;;;;10.73;10.43;;;21.30;99.90;;;;;;5043345;28;20259;-85
2022/10/22 10:54:11;;;;;;;10.40;10.10;;;21.80;99.90;;;;;;5044404;28;20224;-84
2022/10/22 10:56:46;;;;;;;10.15;9.85;;;22.00;99.90;;;;;;5036819;28;20295;-82
2022/10/22 11:02:49;;;;;;;9.73;9.43;;;21.70;99.90;;;;;;5026649;28;20235;-83
2022/10/22 11:05:36;;;;;;;9.90;9.60;;;21.10;99.90;;;;;;5023590;28;20220;-84
2022/10/22 11:08:15;;;;;;;10.20;9.90;;;20.80;99.90;;;;;;5029923;28;20228;-84
2022/10/22 11:10:53;;;;;;;10.50;10.20;;;20.60;99.90;;;;;;5032726;28;20247;-84
2022/10/22 11:13:31;;;;;;;10.30;10.00;;;20.80;99.90;;;;;;5033265;28;20231;-84
2022/10/22 11:16:07;;;;;;;10.13;9.82;;;21.10;99.90;;;;;;5031836;28;20220;-82
2022/10/22 11:18:40;;;;;;;10.10;9.80;;;21.30;99.90;;;;;;5028226;28;20232;-82
2022/10/22 11:21:18;;;;;;;10.23;9.93;;;21.20;99.90;;;;;;5024046;28;20283;-82
2022/10/22 11:23:51;;;;;;;9.65;9.35;;;21.20;99.90;;;;;;5025641;28;20240;-81
2022/10/22 11:26:36;;;;;;;9.60;9.30;;;21.00;99.90;;;;;;5025661;28;20232;-82
2022/10/22 11:29:11;;;;;;;10.10;9.80;;;20.80;99.90;;;;;;5025263;28;20310;-81
2022/10/22 11:31:41;;;;;;;9.57;9.27;;;20.70;99.90;;;;;;5015846;28;20259;-82
2022/10/22 11:34:19;;;;;;;10.27;9.98;;;20.60;99.90;;;;;;5023245;28;20228;-81
2022/10/22 11:36:48;;;;;;;10.00;9.70;;;20.30;99.90;;;;;;5024849;28;20243;-81
2022/10/22 11:39:38;;;;;;;10.25;9.95;;;20.10;99.90;;;;;;5024044;28;20244;-82
2022/10/22 11:42:15;;;;;;;10.18;9.88;;;20.20;99.90;;;;;;5024411;28;20252;-80
2022/10/22 11:45:01;;;;;;;10.50;10.20;;;20.30;99.90;;;;;;5025405;28;20275;-82
2022/10/22 11:47:33;;;;;;;10.50;10.20;;;20.40;99.90;;;;;;5023925;28;20271;-83
2022/10/22 11:50:21;;;;;;;10.80;10.50;;;20.80;99.90;;;;;;5024800;28;20234;-83
2022/10/22 11:53:00;;;;;;;11.00;10.70;;;21.50;99.90;;;;;;5020773;28;20233;-82
2022/10/22 11:55:34;;;;;;;10.80;10.50;;;21.90;99.90;;;;;;5024417;28;20243;-86
2022/10/22 11:58:31;;;;;;;10.93;10.63;;;22.20;99.90;;;;;;5025015;28;20211;-87
2022/10/22 12:01:28;;;;;;;10.70;10.40;;;22.60;99.90;;;;;;5004376;28;20233;-81
2022/10/22 12:04:22;;;;;;;10.38;10.07;;;22.80;99.90;;;;;;5019959;28;20256;-81
2022/10/22 12:07:03;;;;;;;10.40;10.10;;;22.70;99.90;;;;;;5011800;28;20242;-80
2022/10/22 12:09:33;;;;;;;10.80;10.50;;;22.90;99.90;;;;;;5025666;28;20238;-81
2022/10/22 12:12:14;;;;;;;10.70;10.40;;;23.30;99.90;;;;;;5025993;28;20240;-80
2022/10/22 12:14:54;;;;;;;10.60;10.30;;;23.60;99.90;;;;;;5025195;28;20243;-80
2022/10/22 12:17:25;;;;;;;10.40;10.10;;;23.80;99.90;;;;;;5025937;28;20236;-81
2022/10/22 12:20:02;;;;;;;10.60;10.30;;;23.90;99.90;;;;;;5026697;28;20231;-82
2022/10/22 12:22:32;;;;;;;10.48;10.18;;;24.00;99.90;;;;;;5045966;28;20231;-79
2022/10/22 12:25:02;;;;;;;10.85;10.55;;;24.10;99.90;;;;;;5045063;28;20263;-80
2022/10/22 12:27:37;;;;;;;10.57;10.27;;;24.30;99.90;;;;;;5041346;28;20228;-80
2022/10/22 12:30:20;;;;;;;10.82;10.52;;;24.70;99.90;;;;;;5023729;28;21113;-82
2022/10/22 12:32:53;;;;;;;10.85;10.55;;;25.30;99.90;;;;;;5022924;28;20237;-81
2022/10/22 12:35:24;;;;;;;10.70;10.40;;;25.30;99.90;;;;;;5022777;28;20271;-82
2022/10/22 12:37:56;;;;;;;10.77;10.48;;;25.20;99.90;;;;;;5023725;28;20215;-81
2022/10/22 12:40:28;;;;;;;10.90;10.60;;;24.80;99.90;;;;;;5017022;28;20252;-81
2022/10/22 12:42:58;;;;;;;10.90;10.60;;;24.50;99.90;;;;;;5024982;28;20236;-81
2022/10/22 12:45:29;;;;;;;10.98;10.68;;;24.90;99.90;;;;;;5023570;28;20267;-81
2022/10/22 12:48:02;;;;;;;10.85;10.55;;;25.10;99.90;;;;;;5024350;28;20229;-81
2022/10/22 12:50:37;;;;;;;10.70;10.40;;;24.80;99.90;;;;;;5025294;28;20244;-80
2022/10/22 12:53:10;;;;;;;10.55;10.25;;;24.70;99.90;;;;;;5020828;28;21016;-80
2022/10/22 12:55:38;;;;;;;10.70;10.40;;;24.70;99.90;;;;;;5017450;28;20239;-80
2022/10/22 12:58:09;;;;;;;10.70;10.40;;;24.50;99.90;;;;;;5030326;28;20227;-80
2022/10/22 13:00:40;;;;;;;10.70;10.40;;;24.10;99.90;;;;;;5029958;28;20228;-80
2022/10/22 13:03:27;;;;;;;10.45;10.15;;;23.90;99.90;;;;;;5028007;28;20239;-80
2022/10/22 13:05:55;;;;;;;10.48;10.18;;;23.20;99.90;;;;;;5029786;28;20236;-81
2022/10/22 13:08:24;;;;;;;10.70;10.40;;;22.70;99.90;;;;;;5029070;28;20327;-81
2022/10/22 13:10:54;;;;;;;10.57;10.27;;;22.50;99.90;;;;;;5026940;28;20251;-82
2022/10/22 13:13:33;;;;;;;10.43;10.13;;;22.60;99.90;;;;;;5029048;28;20227;-84
2022/10/22 13:16:19;;;;;;;10.65;10.35;;;22.80;99.90;;;;;;5026047;28;20231;-84
2022/10/22 13:18:51;;;;;;;10.45;10.15;;;22.90;99.90;;;;;;5024856;28;21072;-83
2022/10/22 13:21:29;;;;;;;10.45;10.15;;;22.90;99.90;;;;;;5024378;28;20319;-82
2022/10/22 13:24:02;;;;;;;10.50;10.20;;;23.20;99.90;;;;;;5024711;28;20234;-82
2022/10/22 13:26:35;;;;;;;10.60;10.30;;;23.50;99.90;;;;;;5023810;28;20240;-83
2022/10/22 13:29:13;;;;;;;10.40;10.10;;;24.00;99.90;;;;;;5023359;28;20331;-82
2022/10/22 13:31:47;;;;;;;10.50;10.20;;;24.50;99.90;;;;;;5021073;28;20272;-80
2022/10/22 13:34:20;;;;;;;10.40;10.10;;;24.60;99.90;;;;;;5018218;28;20717;-79
2022/10/22 13:36:48;;;;;;;10.70;10.40;;;24.60;99.90;;;;;;5017808;28;20331;-78
2022/10/22 13:39:19;;;;;;;10.60;10.30;;;24.40;99.90;;;;;;5018062;28;20296;-79
2022/10/22 13:41:49;;;;;;;10.50;10.20;;;24.40;99.90;;;;;;5020537;28;20290;-80
2022/10/22 13:44:16;;;;;;;10.48;10.18;;;24.50;99.90;;;;;;5022062;28;20232;-80
2022/10/22 13:46:44;;;;;;;10.65;10.35;;;24.40;99.90;;;;;;5022233;28;20334;-80
2022/10/22 13:49:18;;;;;;;10.57;10.27;;;24.50;99.90;;;;;;5023059;28;20251;-79
2022/10/22 13:51:46;;;;;;;10.90;10.60;;;24.70;99.90;;;;;;5022540;28;20231;-79
2022/10/22 13:54:18;;;;;;;10.57;10.27;;;25.00;99.90;;;;;;5023445;28;20232;-79
2022/10/22 13:56:46;;;;;;;10.75;10.45;;;25.30;99.90;;;;;;5024024;28;20244;-79
2022/10/22 13:59:13;;;;;;;11.02;10.73;;;25.60;99.90;;;;;;5026300;28;20239;-79
2022/10/22 14:01:41;;;;;;;10.60;10.30;;;25.90;99.90;;;;;;5029465;28;20295;-79
2022/10/22 14:04:13;;;;;;;10.80;10.50;;;25.90;99.90;;;;;;5028526;28;20228;-79
2022/10/22 14:06:42;;;;;;;10.52;10.23;;;25.60;99.90;;;;;;5027174;28;20274;-79
2022/10/22 14:09:15;;;;;;;10.57;10.27;;;25.30;99.90;;;;;;5026794;28;20236;-79
2022/10/22 14:11:43;;;;;;;10.63;10.32;;;25.50;99.90;;;;;;5027369;28;20386;-79
2022/10/22 14:14:12;;;;;;;10.55;10.25;;;25.90;99.90;;;;;;5028849;28;20238;-79
2022/10/22 14:16:40;;;;;;;10.60;10.30;;;26.10;99.90;;;;;;5027951;28;20299;-78
2022/10/22 14:19:11;;;;;;;10.70;10.40;;;26.00;99.90;;;;;;5028896;28;20283;-80
2022/10/22 14:21:38;;;;;;;10.55;10.25;;;26.20;99.90;;;;;;5030189;28;20220;-79
2022/10/22 14:24:10;;;;;;;10.95;10.65;;;26.60;99.90;;;;;;5030542;28;20300;-80
2022/10/22 14:26:38;;;;;;;11.10;10.80;;;26.80;99.90;;;;;;5029662;28;20248;-80
2022/10/22 14:29:05;;;;;;;10.80;10.50;;;27.20;99.90;;;;;;5027515;28;20258;-79
2022/10/22 14:31:33;;;;;;;10.90;10.60;;;27.40;99.90;;;;;;5032796;28;20300;-80
2022/10/22 14:34:00;;;;;;;10.93;10.63;;;27.40;99.90;;;;;;5017903;28;20232;-78
2022/10/22 14:36:28;;;;;;;10.75;10.45;;;27.70;99.90;;;;;;5015971;28;20240;-78
2022/10/22 14:38:55;;;;;;;10.90;10.60;;;27.90;99.90;;;;;;5016269;28;20259;-78
2022/10/22 14:41:26;;;;;;;10.70;10.40;;;27.90;99.90;;;;;;5015700;28;20228;-78
2022/10/22 14:43:54;;;;;;;10.50;10.20;;;28.00;99.90;;;;;;5015441;28;20236;-78
2022/10/22 14:46:24;;;;;;;10.73;10.43;;;27.90;99.90;;;;;;5016621;28;20236;-79
2022/10/22 14:48:52;;;;;;;10.80;10.50;;;27.50;99.90;;;;;;5018829;28;20228;-79
2022/10/22 14:51:21;;;;;;;10.82;10.52;;;27.30;99.90;;;;;;5019158;28;20283;-79
2022/10/22 14:53:49;;;;;;;10.60;10.30;;;27.20;99.90;;;;;;5019476;28;20220;-80
2022/10/22 14:56:20;;;;;;;10.70;10.40;;;26.90;99.90;;;;;;5019327;28;20323;-80
2022/10/22 14:58:50;;;;;;;10.70;10.40;;;26.80;99.90;;;;;;5018765;28;20268;-80
2022/10/22 15:01:17;;;;;;;10.77;10.48;;;26.60;99.90;;;;;;5019039;28;20216;-80
2022/10/22 15:03:45;;;;;;;10.73;10.43;;;26.50;99.90;;;;;;5018559;28;20246;-80
2022/10/22 15:06:12;;;;;;;10.35;10.05;;;26.30;99.90;;;;;;5020230;28;20240;-80
2022/10/22 15:08:42;;;;;;;10.45;10.15;;;26.10;99.90;;;;;;5019183;28;20235;-80
2022/10/22 15:11:12;;;;;;;10.68;10.38;;;25.90;99.90;;;;;;5018719;28;20238;-79
2022/10/22 15:13:40;;;;;;;10.40;10.10;;;25.60;99.90;;;;;;5017584;28;20232;-79
2022/10/22 15:16:13;;;;;;;10.35;10.05;;;25.40;99.90;;;;;;5017145;28;20326;-79
2022/10/22 15:18:40;;;;;;;10.38;10.07;;;25.40;99.90;;;;;;5017004;28;20315;-80
2022/10/22 15:21:16;;;;;;;10.68;10.38;;;25.00;99.90;;;;;;5017130;28;20307;-79
2022/10/22 15:23:44;;;;;;;10.50;10.20;;;24.50;99.90;;;;;;5018158;28;20303;-79
2022/10/22 15:26:15;;;;;;;10.48;10.18;;;24.00;99.90;;;;;;5018414;28;20240;-79
2022/10/22 15:28:47;;;;;;;10.43;10.13;;;23.40;99.90;;;;;;5020445;28;20334;-80
2022/10/22 15:31:53;;;;;;;10.55;10.25;;;23.10;99.90;;;;;;5025268;28;20236;-79
2022/10/22 15:34:23;;;;;;;10.20;9.90;;;22.80;99.90;;;;;;5025075;28;20240;-80
2022/10/22 15:36:51;;;;;;;10.00;9.70;;;22.40;99.90;;;;;;5021164;28;20236;-79
2022/10/22 15:39:20;;;;;;;9.88;9.57;;;22.10;99.90;;;;;;5027400;28;20362;-80
2022/10/22 15:41:49;;;;;;;9.73;9.43;;;21.80;99.90;;;;;;5033399;28;20303;-79
2022/10/22 15:44:19;;;;;;;9.85;9.55;;;21.70;99.90;;;;;;5036907;28;20240;-80
2022/10/22 15:46:50;;;;;;;9.85;9.55;;;21.50;99.90;;;;;;5039933;28;20240;-80
2022/10/22 15:49:19;;;;;;;9.70;9.40;;;21.50;99.90;;;;;;5040283;28;20240;-80
2022/10/22 15:51:46;;;;;;;9.88;9.57;;;21.30;99.90;;;;;;5037840;28;20226;-79
2022/10/22 15:54:16;;;;;;;9.93;9.63;;;21.10;99.90;;;;;;5039872;28;20228;-79
2022/10/22 15:56:44;;;;;;;10.10;9.80;;;20.90;99.90;;;;;;5041316;28;20216;-80
2022/10/22 15:59:14;;;;;;;10.18;9.88;;;20.60;99.90;;;;;;5040347;28;20255;-79
2022/10/22 16:01:44;;;;;;;9.98;9.68;;;20.40;99.90;;;;;;5041156;28;20212;-80
2022/10/22 16:04:17;;;;;;;9.80;9.50;;;20.40;99.90;;;;;;5039745;28;20239;-80
2022/10/22 16:06:48;;;;;;;9.93;9.63;;;20.30;99.90;;;;;;5038306;28;20270;-79
2022/10/22 16:09:17;;;;;;;10.00;9.70;;;20.10;99.90;;;;;;5038348;28;20224;-80
2022/10/22 16:11:46;;;;;;;9.80;9.50;;;20.00;99.90;;;;;;5036769;28;20257;-79
2022/10/22 16:14:15;;;;;;;9.65;9.35;;;19.90;99.90;;;;;;5036968;28;20232;-80
2022/10/22 16:47:48;;;;;;;8.57;8.38;;;18.70;99.90;;;;;;4721455;30;20285;-81
2022/10/22 16:50:26;;;;;;;8.65;8.45;;;18.60;99.90;;;;;;4811119;29;20223;-81
2022/10/22 16:52:54;;;;;;;8.70;8.50;;;18.60;99.90;;;;;;5018111;28;20239;-81
2022/10/22 16:55:22;;;;;;;9.00;8.75;;;18.50;99.90;;;;;;5019406;28;20228;-81
2022/10/22 16:57:54;;;;;;;8.90;8.70;;;18.40;99.90;;;;;;5008616;28;20364;-80
2022/10/22 17:00:34;;;;;;;8.70;8.50;;;18.30;99.90;;;;;;5008165;28;20232;-83
2022/10/22 17:03:03;;;;;;;8.80;8.60;;;18.20;99.90;;;;;;5001134;28;20239;-82
2022/10/22 17:05:31;;;;;;;8.93;8.70;;;18.10;99.90;;;;;;5001033;28;20233;-81
2022/10/22 17:07:59;;;;;;;8.68;8.48;;;18.00;99.90;;;;;;5000116;28;20240;-83
2022/10/22 17:10:29;;;;;;;8.80;8.60;;;17.90;99.90;;;;;;5001289;28;20229;-82
2022/10/22 17:12:57;;;;;;;8.60;8.40;;;17.80;99.90;;;;;;5001654;28;20269;-82
2022/10/22 17:15:27;;;;;;;8.80;8.60;;;17.70;99.90;;;;;;5000799;28;20241;-82
2022/10/22 17:17:58;;;;;;;8.60;8.40;;;17.60;99.90;;;;;;5001259;28;20269;-83
2022/10/22 17:23:16;;;;;;;8.45;8.25;;;17.50;99.90;;;;;;5025748;28;20251;-79
2022/10/22 17:25:45;;;;;;;8.82;8.63;;;17.40;99.90;;;;;;5039137;28;20236;-79
2022/10/22 17:28:21;;;;;;;8.60;8.40;;;17.30;99.90;;;;;;5039118;28;20250;-80
2022/10/22 17:30:49;;;;;;;8.50;8.30;;;17.20;99.90;;;;;;5038412;28;20204;-80
2022/10/22 17:33:17;;;;;;;8.80;8.60;;;17.00;99.90;;;;;;5038536;28;20223;-79
2022/10/22 17:35:48;;;;;;;8.77;8.57;;;16.90;99.90;;;;;;5028904;28;20247;-81
2022/10/22 17:38:30;;;;;;;8.73;8.52;;;16.80;99.90;;;;;;5022585;28;20331;-82
2022/10/22 17:40:58;;;;;;;9.30;9.00;;;16.70;99.90;;;;;;5020690;28;20236;-81
2022/10/22 17:43:26;;;;;;;8.90;8.70;;;16.50;99.90;;;;;;5020220;28;20239;-82
2022/10/22 17:46:17;;;;;;;8.60;8.40;;;16.40;99.90;;;;;;5017782;28;20236;-81
2022/10/22 17:49:08;;;;;;;8.50;8.30;;;16.30;99.90;;;;;;5029461;28;20229;-80
2022/10/22 17:51:48;;;;;;;8.80;8.60;;;16.20;99.90;;;;;;5016480;28;20252;-80
2022/10/22 17:57:08;;;;;;;8.73;8.52;;;16.00;99.90;;;;;;5035639;28;20236;-80
2022/10/22 17:59:37;;;;;;;8.98;8.75;;;15.90;99.90;;;;;;5033594;28;20216;-81
2022/10/22 18:02:04;;;;;;;9.10;8.80;;;15.80;99.90;;;;;;5009917;28;20216;-81
2022/10/22 18:04:47;;;;;;;8.60;8.40;;;15.70;99.90;;;;;;5021012;28;20287;-83
2022/10/22 18:07:17;;;;;;;8.50;8.30;;;15.70;99.90;;;;;;5023387;28;20228;-83
2022/10/22 18:09:52;;;;;;;8.60;8.40;;;15.50;99.90;;;;;;5022226;28;20327;-82
2022/10/22 18:12:22;;;;;;;8.68;8.48;;;15.40;99.90;;;;;;5021828;28;20227;-81
2022/10/22 18:15:01;;;;;;;9.05;8.77;;;15.40;99.90;;;;;;5022363;28;20323;-82
2022/10/22 18:17:34;;;;;;;8.80;8.60;;;15.30;99.90;;;;;;5021193;28;20323;-84
2022/10/22 18:20:11;;;;;;;9.23;8.93;;;15.10;99.90;;;;;;5022056;28;20359;-82
2022/10/22 18:22:47;;;;;;;9.20;8.90;;;15.00;99.90;;;;;;5020887;28;20238;-82
2022/10/22 18:26:10;;;;;;;;;;;;;;;;;;;;;
2022/10/22 18:28:47;;;;;;;9.20;8.90;;;14.70;99.90;;;;;;5001317;28;20224;-82
2022/10/22 18:31:24;;;;;;;9.40;9.10;;;14.50;99.90;;;;;;5007418;28;20292;-82
2022/10/22 18:34:02;;;;;;;9.00;8.70;;;14.50;99.90;;;;;;5021128;28;20244;-83
2022/10/22 18:37:02;;;;;;;9.17;8.87;;;14.40;99.90;;;;;;5023001;28;20247;-85